sensor_id;sensor_type;location;lat;lon;timestamp;pressure;altitude;pressure_sealevel;temperature;humidity
41636;BME280;27623;51.966;4.602;2023-04-26T00:00:42;64002.84;;;8.27;86.93
41636;BME280;27623;51.966;4.602;2023-04-26T00:03:07;63956.97;;;8.24;85.06
41636;BME280;27623;51.966;4.602;2023-04-26T00:05:33;63977.28;;;8.24;85.27
41636;BME280;27623;51.966;4.602;2023-04-26T00:07:59;63964.22;;;8.12;85.63
41636;BME280;27623;51.966;4.602;2023-04-26T00:10:29;64008.47;;;8.27;85.77
41636;BME280;27623;51.966;4.602;2023-04-26T00:12:54;63987.97;;;8.25;85.30
41636;BME280;27623;51.966;4.602;2023-04-26T00:15:20;63963.88;;;8.21;84.42
41636;BME280;27623;51.966;4.602;2023-04-26T00:17:45;63949.91;;;8.11;85.71
41636;BME280;27623;51.966;4.602;2023-04-26T00:20:11;63964.78;;;8.13;85.54
41636;BME280;27623;51.966;4.602;2023-04-26T00:22:37;64006.66;;;8.16;85.21
41636;BME280;27623;51.966;4.602;2023-04-26T00:25:04;63919.53;;;7.82;87.01
41636;BME280;27623;51.966;4.602;2023-04-26T00:27:29;63919.38;;;7.73;87.14
41636;BME280;27623;51.966;4.602;2023-04-26T00:29:55;63941.81;;;7.75;87.24
41636;BME280;27623;51.966;4.602;2023-04-26T00:32:22;63940.91;;;7.83;86.18
41636;BME280;27623;51.966;4.602;2023-04-26T00:34:48;63908.31;;;7.81;86.09
41636;BME280;27623;51.966;4.602;2023-04-26T00:37:13;63952.66;;;7.92;85.15
41636;BME280;27623;51.966;4.602;2023-04-26T00:39:38;63946.00;;;7.83;85.38
41636;BME280;27623;51.966;4.602;2023-04-26T00:42:04;63940.19;;;7.80;85.74
41636;BME280;27623;51.966;4.602;2023-04-26T00:44:32;63902.53;;;7.64;87.09
41636;BME280;27623;51.966;4.602;2023-04-26T00:46:57;63902.88;;;7.69;86.01
41636;BME280;27623;51.966;4.602;2023-04-26T00:49:24;63879.38;;;7.59;86.15
41636;BME280;27623;51.966;4.602;2023-04-26T00:51:52;63900.75;;;7.46;87.17
41636;BME280;27623;51.966;4.602;2023-04-26T00:54:19;63884.66;;;7.47;87.07
41636;BME280;27623;51.966;4.602;2023-04-26T00:56:45;63851.19;;;7.26;88.50
41636;BME280;27623;51.966;4.602;2023-04-26T00:59:11;63901.50;;;7.42;87.42
41636;BME280;27623;51.966;4.602;2023-04-26T01:01:36;63879.75;;;7.36;87.63
41636;BME280;27623;51.966;4.602;2023-04-26T01:04:02;63866.56;;;7.21;87.45
41636;BME280;27623;51.966;4.602;2023-04-26T01:06:33;63847.00;;;7.31;88.08
41636;BME280;27623;51.966;4.602;2023-04-26T01:09:01;63883.94;;;7.30;87.31
41636;BME280;27623;51.966;4.602;2023-04-26T01:11:35;63854.09;;;7.23;88.62
41636;BME280;27623;51.966;4.602;2023-04-26T01:14:01;63848.66;;;7.26;88.54
41636;BME280;27623;51.966;4.602;2023-04-26T01:16:26;63847.94;;;7.15;89.46
41636;BME280;27623;51.966;4.602;2023-04-26T01:18:52;63874.16;;;7.28;87.82
41636;BME280;27623;51.966;4.602;2023-04-26T01:21:22;63835.13;;;7.06;88.36
41636;BME280;27623;51.966;4.602;2023-04-26T01:23:49;63865.84;;;7.11;88.26
41636;BME280;27623;51.966;4.602;2023-04-26T01:26:14;63862.06;;;7.07;89.10
41636;BME280;27623;51.966;4.602;2023-04-26T01:28:40;63851.75;;;6.98;90.48
41636;BME280;27623;51.966;4.602;2023-04-26T01:31:06;63845.59;;;7.04;88.55
41636;BME280;27623;51.966;4.602;2023-04-26T01:33:31;63793.69;;;6.86;89.80
41636;BME280;27623;51.966;4.602;2023-04-26T01:35:57;63796.41;;;6.88;90.78
41636;BME280;27623;51.966;4.602;2023-04-26T01:38:25;63832.78;;;6.80;90.20
41636;BME280;27623;51.966;4.602;2023-04-26T01:40:50;63800.78;;;6.85;89.29
41636;BME280;27623;51.966;4.602;2023-04-26T01:43:15;63789.59;;;6.63;90.28
41636;BME280;27623;51.966;4.602;2023-04-26T01:45:46;63808.38;;;6.71;89.33
41636;BME280;27623;51.966;4.602;2023-04-26T01:48:12;63828.63;;;6.78;88.50
41636;BME280;27623;51.966;4.602;2023-04-26T01:50:37;63816.88;;;6.70;88.53
41636;BME280;27623;51.966;4.602;2023-04-26T01:53:02;63775.09;;;6.66;90.04
41636;BME280;27623;51.966;4.602;2023-04-26T01:55:31;63815.97;;;6.57;89.54
41636;BME280;27623;51.966;4.602;2023-04-26T01:57:57;63790.81;;;6.67;89.76
41636;BME280;27623;51.966;4.602;2023-04-26T02:00:23;63818.69;;;6.74;89.45
41636;BME280;27623;51.966;4.602;2023-04-26T02:02:51;63772.41;;;6.57;90.33
41636;BME280;27623;51.966;4.602;2023-04-26T02:05:18;63812.53;;;6.80;88.54
41636;BME280;27623;51.966;4.602;2023-04-26T02:07:43;63779.28;;;6.46;89.64
41636;BME280;27623;51.966;4.602;2023-04-26T02:10:09;63763.94;;;6.37;90.50
41636;BME280;27623;51.966;4.602;2023-04-26T02:12:36;63778.56;;;6.50;90.17
41636;BME280;27623;51.966;4.602;2023-04-26T02:15:02;63798.81;;;6.65;90.68
41636;BME280;27623;51.966;4.602;2023-04-26T02:17:27;63798.44;;;6.52;91.68
41636;BME280;27623;51.966;4.602;2023-04-26T02:19:53;63797.00;;;6.61;91.48
41636;BME280;27623;51.966;4.602;2023-04-26T02:22:19;63807.84;;;6.57;91.80
41636;BME280;27623;51.966;4.602;2023-04-26T02:24:48;63798.59;;;6.83;90.56
41636;BME280;27623;51.966;4.602;2023-04-26T02:27:14;63784.84;;;6.75;91.42
41636;BME280;27623;51.966;4.602;2023-04-26T02:29:39;63808.72;;;6.69;92.41
41636;BME280;27623;51.966;4.602;2023-04-26T02:32:04;63810.53;;;6.80;92.34
41636;BME280;27623;51.966;4.602;2023-04-26T02:34:32;63838.72;;;7.00;91.15
41636;BME280;27623;51.966;4.602;2023-04-26T02:36:58;63819.56;;;6.79;93.25
41636;BME280;27623;51.966;4.602;2023-04-26T02:39:23;63820.66;;;6.80;94.08
41636;BME280;27623;51.966;4.602;2023-04-26T02:41:50;63847.06;;;6.88;93.07
41636;BME280;27623;51.966;4.602;2023-04-26T02:44:15;63849.94;;;7.08;92.67
41636;BME280;27623;51.966;4.602;2023-04-26T02:46:41;63823.72;;;6.95;92.76
41636;BME280;27623;51.966;4.602;2023-04-26T02:49:06;63836.94;;;7.03;93.25
41636;BME280;27623;51.966;4.602;2023-04-26T02:51:31;63862.06;;;6.93;93.65
41636;BME280;27623;51.966;4.602;2023-04-26T02:53:57;63826.63;;;6.93;93.02
41636;BME280;27623;51.966;4.602;2023-04-26T02:56:23;63827.69;;;6.94;93.22
41636;BME280;27623;51.966;4.602;2023-04-26T02:58:48;63828.63;;;6.78;94.53
41636;BME280;27623;51.966;4.602;2023-04-26T03:01:14;63853.75;;;6.90;93.78
41636;BME280;27623;51.966;4.602;2023-04-26T03:03:39;63835.69;;;6.64;93.99
41636;BME280;27623;51.966;4.602;2023-04-26T03:06:05;63822.84;;;6.61;94.47
41636;BME280;27623;51.966;4.602;2023-04-26T03:08:32;63774.94;;;6.64;93.64
41636;BME280;27623;51.966;4.602;2023-04-26T03:10:59;63815.59;;;6.66;95.00
41636;BME280;27623;51.966;4.602;2023-04-26T03:13:28;63800.94;;;6.67;94.38
41636;BME280;27623;51.966;4.602;2023-04-26T03:15:53;63809.44;;;6.72;94.34
41636;BME280;27623;51.966;4.602;2023-04-26T03:18:19;63810.72;;;6.69;95.46
41636;BME280;27623;51.966;4.602;2023-04-26T03:20:47;63813.97;;;6.72;95.77
41636;BME280;27623;51.966;4.602;2023-04-26T03:23:12;63844.91;;;6.72;95.13
41636;BME280;27623;51.966;4.602;2023-04-26T03:25:38;63832.06;;;6.70;94.47
41636;BME280;27623;51.966;4.602;2023-04-26T03:28:04;63816.34;;;6.55;95.18
41636;BME280;27623;51.966;4.602;2023-04-26T03:30:29;63789.41;;;6.53;95.68
41636;BME280;27623;51.966;4.602;2023-04-26T03:32:55;63805.66;;;6.76;94.36
41636;BME280;27623;51.966;4.602;2023-04-26T03:35:21;63818.66;;;6.67;95.13
41636;BME280;27623;51.966;4.602;2023-04-26T03:37:47;63821.94;;;6.77;93.75
41636;BME280;27623;51.966;4.602;2023-04-26T03:40:12;63819.22;;;6.67;93.25
41636;BME280;27623;51.966;4.602;2023-04-26T03:42:38;63778.91;;;6.55;93.96
41636;BME280;27623;51.966;4.602;2023-04-26T03:45:04;63817.03;;;6.72;93.68
41636;BME280;27623;51.966;4.602;2023-04-26T03:47:30;63808.53;;;6.74;92.40
41636;BME280;27623;51.966;4.602;2023-04-26T03:49:56;63779.81;;;6.47;93.11
41636;BME280;27623;51.966;4.602;2023-04-26T03:52:22;63787.59;;;6.35;93.71
41636;BME280;27623;51.966;4.602;2023-04-26T03:54:49;63773.50;;;6.36;92.99
41636;BME280;27623;51.966;4.602;2023-04-26T03:57:17;63797.38;;;6.37;92.90
41636;BME280;27623;51.966;4.602;2023-04-26T03:59:43;63809.13;;;6.39;92.83
41636;BME280;27623;51.966;4.602;2023-04-26T04:02:08;63747.13;;;6.28;93.41
41636;BME280;27623;51.966;4.602;2023-04-26T04:04:33;63772.41;;;6.28;92.83
41636;BME280;27623;51.966;4.602;2023-04-26T04:06:58;63786.50;;;6.27;92.89
41636;BME280;27623;51.966;4.602;2023-04-26T04:09:24;63746.06;;;5.99;93.94
41636;BME280;27623;51.966;4.602;2023-04-26T04:11:49;63748.41;;;6.10;93.98
41636;BME280;27623;51.966;4.602;2023-04-26T04:14:15;63772.97;;;6.36;92.43
41636;BME280;27623;51.966;4.602;2023-04-26T04:16:41;63762.13;;;6.40;91.48
41636;BME280;27623;51.966;4.602;2023-04-26T04:19:06;63786.16;;;6.29;92.40
41636;BME280;27623;51.966;4.602;2023-04-26T04:21:31;63718.06;;;6.17;92.75
41636;BME280;27623;51.966;4.602;2023-04-26T04:23:59;63733.41;;;6.06;93.11
41636;BME280;27623;51.966;4.602;2023-04-26T04:26:25;63751.66;;;6.06;93.98
41636;BME280;27623;51.966;4.602;2023-04-26T04:28:52;63726.19;;;6.11;93.30
41636;BME280;27623;51.966;4.602;2023-04-26T04:31:19;63776.75;;;6.25;92.67
41636;BME280;27623;51.966;4.602;2023-04-26T04:33:45;63737.56;;;6.22;93.10
41636;BME280;27623;51.966;4.602;2023-04-26T04:36:10;63768.47;;;6.15;95.01
41636;BME280;27623;51.966;4.602;2023-04-26T04:38:36;63787.25;;;6.37;94.94
41636;BME280;27623;51.966;4.602;2023-04-26T04:41:01;63785.63;;;6.36;95.20
41636;BME280;27623;51.966;4.602;2023-04-26T04:43:26;63755.06;;;6.54;95.64
41636;BME280;27623;51.966;4.602;2023-04-26T04:45:52;63783.78;;;6.46;96.22
41636;BME280;27623;51.966;4.602;2023-04-26T04:48:18;63800.44;;;6.52;97.15
41636;BME280;27623;51.966;4.602;2023-04-26T04:50:44;63776.75;;;6.53;97.76
41636;BME280;27623;51.966;4.602;2023-04-26T04:53:10;63811.28;;;6.62;98.45
41636;BME280;27623;51.966;4.602;2023-04-26T04:55:36;63832.78;;;6.66;98.83
41636;BME280;27623;51.966;4.602;2023-04-26T04:58:02;63833.69;;;6.78;98.80
41636;BME280;27623;51.966;4.602;2023-04-26T05:00:28;63857.72;;;6.89;99.21
41636;BME280;27623;51.966;4.602;2023-04-26T05:02:54;63828.63;;;6.85;98.98
41636;BME280;27623;51.966;4.602;2023-04-26T05:05:19;63858.81;;;7.04;98.93
41636;BME280;27623;51.966;4.602;2023-04-26T05:07:45;63867.13;;;7.07;96.98
41636;BME280;27623;51.966;4.602;2023-04-26T05:10:13;63866.41;;;7.18;96.91
41636;BME280;27623;51.966;4.602;2023-04-26T05:12:38;63849.94;;;7.08;97.63
41636;BME280;27623;51.966;4.602;2023-04-26T05:15:04;63864.94;;;7.12;97.73
41636;BME280;27623;51.966;4.602;2023-04-26T05:17:31;63866.94;;;7.12;97.80
41636;BME280;27623;51.966;4.602;2023-04-26T05:19:57;63847.94;;;7.08;97.96
41636;BME280;27623;51.966;4.602;2023-04-26T05:22:22;63836.53;;;7.19;97.43
41636;BME280;27623;51.966;4.602;2023-04-26T05:24:48;63828.06;;;6.99;98.63
41636;BME280;27623;51.966;4.602;2023-04-26T05:27:13;63893.88;;;7.28;97.98
41636;BME280;27623;51.966;4.602;2023-04-26T05:29:39;63866.56;;;7.07;97.82
41636;BME280;27623;51.966;4.602;2023-04-26T05:32:04;63860.44;;;7.06;98.17
41636;BME280;27623;51.966;4.602;2023-04-26T05:34:30;63867.84;;;7.24;98.00
41636;BME280;27623;51.966;4.602;2023-04-26T05:36:55;63865.84;;;7.32;97.50
41636;BME280;27623;51.966;4.602;2023-04-26T05:39:21;63879.97;;;7.24;95.17
41636;BME280;27623;51.966;4.602;2023-04-26T05:41:47;63852.28;;;7.19;94.68
41636;BME280;27623;51.966;4.602;2023-04-26T05:44:12;63843.06;;;7.18;95.40
41636;BME280;27623;51.966;4.602;2023-04-26T05:46:39;63875.47;;;7.03;97.05
41636;BME280;27623;51.966;4.602;2023-04-26T05:49:04;63864.22;;;7.09;97.84
41636;BME280;27623;51.966;4.602;2023-04-26T05:51:29;63853.03;;;7.01;98.46
41636;BME280;27623;51.966;4.602;2023-04-26T05:53:55;63843.78;;;7.07;98.34
41636;BME280;27623;51.966;4.602;2023-04-26T05:56:21;63865.66;;;7.15;98.06
41636;BME280;27623;51.966;4.602;2023-04-26T05:58:48;63855.31;;;7.34;96.79
41636;BME280;27623;51.966;4.602;2023-04-26T06:01:13;63895.34;;;7.27;95.37
41636;BME280;27623;51.966;4.602;2023-04-26T06:03:39;63867.66;;;7.22;95.01
41636;BME280;27623;51.966;4.602;2023-04-26T06:06:04;63895.50;;;7.29;92.99
41636;BME280;27623;51.966;4.602;2023-04-26T06:08:29;63930.09;;;7.38;91.28
41636;BME280;27623;51.966;4.602;2023-04-26T06:10:55;63913.44;;;7.46;90.42
41636;BME280;27623;51.966;4.602;2023-04-26T06:13:20;63919.75;;;7.64;90.92
41636;BME280;27623;51.966;4.602;2023-04-26T06:15:46;63962.13;;;7.75;90.80
41636;BME280;27623;51.966;4.602;2023-04-26T06:18:11;63935.31;;;7.83;88.94
41636;BME280;27623;51.966;4.602;2023-04-26T06:20:36;63949.25;;;7.86;86.86
41636;BME280;27623;51.966;4.602;2023-04-26T06:23:02;63969.53;;;7.93;82.07
41636;BME280;27623;51.966;4.602;2023-04-26T06:25:27;63930.56;;;7.95;80.65
41636;BME280;27623;51.966;4.602;2023-04-26T06:27:55;63996.16;;;8.04;80.51
41636;BME280;27623;51.966;4.602;2023-04-26T06:30:22;63968.44;;;8.07;80.12
41636;BME280;27623;51.966;4.602;2023-04-26T06:32:48;64019.16;;;8.21;77.86
41636;BME280;27623;51.966;4.602;2023-04-26T06:35:13;63950.28;;;8.16;77.81
41636;BME280;27623;51.966;4.602;2023-04-26T06:37:38;63967.50;;;8.15;78.24
41636;BME280;27623;51.966;4.602;2023-04-26T06:40:05;63974.03;;;8.00;73.03
41636;BME280;27623;51.966;4.602;2023-04-26T06:42:30;63962.25;;;8.13;74.05
41636;BME280;27623;51.966;4.602;2023-04-26T06:44:56;63985.63;;;8.20;76.70
41636;BME280;27623;51.966;4.602;2023-04-26T06:47:22;64000.84;;;8.27;76.21
41636;BME280;27623;51.966;4.602;2023-04-26T06:49:47;63964.75;;;8.34;73.03
41636;BME280;27623;51.966;4.602;2023-04-26T06:52:13;64000.09;;;8.39;74.57
41636;BME280;27623;51.966;4.602;2023-04-26T06:54:38;64019.69;;;8.43;75.82
41636;BME280;27623;51.966;4.602;2023-04-26T06:57:03;64016.41;;;8.47;75.90
41636;BME280;27623;51.966;4.602;2023-04-26T06:59:29;64021.28;;;8.66;75.82
41636;BME280;27623;51.966;4.602;2023-04-26T07:01:54;64022.75;;;8.57;75.97
41636;BME280;27623;51.966;4.602;2023-04-26T07:04:20;63987.78;;;8.44;71.79
41636;BME280;27623;51.966;4.602;2023-04-26T07:06:45;64028.41;;;8.44;72.43
41636;BME280;27623;51.966;4.602;2023-04-26T07:09:11;64010.94;;;8.56;73.08
41636;BME280;27623;51.966;4.602;2023-04-26T07:11:37;64051.38;;;8.68;74.06
41636;BME280;27623;51.966;4.602;2023-04-26T07:14:06;64045.97;;;8.63;73.78
41636;BME280;27623;51.966;4.602;2023-04-26T07:16:31;64026.38;;;8.58;73.36
41636;BME280;27623;51.966;4.602;2023-04-26T07:18:56;64061.38;;;8.65;71.77
41636;BME280;27623;51.966;4.602;2023-04-26T07:21:23;64053.94;;;8.68;71.85
41636;BME280;27623;51.966;4.602;2023-04-26T07:23:53;64051.38;;;8.68;71.88
41636;BME280;27623;51.966;4.602;2023-04-26T07:26:18;64049.22;;;8.73;73.32
41636;BME280;27623;51.966;4.602;2023-04-26T07:28:43;64051.53;;;8.77;74.26
41636;BME280;27623;51.966;4.602;2023-04-26T07:31:09;64049.19;;;8.87;72.50
41636;BME280;27623;51.966;4.602;2023-04-26T07:33:34;64070.78;;;8.90;73.95
41636;BME280;27623;51.966;4.602;2023-04-26T07:36:00;64067.09;;;8.96;73.85
41636;BME280;27623;51.966;4.602;2023-04-26T07:38:28;64057.84;;;8.95;73.93
41636;BME280;27623;51.966;4.602;2023-04-26T07:40:54;64036.78;;;8.99;71.34
41636;BME280;27623;51.966;4.602;2023-04-26T07:43:19;64073.47;;;9.00;71.81
41636;BME280;27623;51.966;4.602;2023-04-26T07:45:45;64091.25;;;9.07;70.64
41636;BME280;27623;51.966;4.602;2023-04-26T07:48:13;64054.75;;;9.09;70.37
41636;BME280;27623;51.966;4.602;2023-04-26T07:50:40;64061.97;;;9.18;71.28
41636;BME280;27623;51.966;4.602;2023-04-26T07:53:06;64094.66;;;9.20;73.07
41636;BME280;27623;51.966;4.602;2023-04-26T07:55:31;64076.34;;;9.12;74.05
41636;BME280;27623;51.966;4.602;2023-04-26T07:57:56;64083.94;;;9.19;75.70
41636;BME280;27623;51.966;4.602;2023-04-26T08:00:22;64067.47;;;9.09;75.92
41636;BME280;27623;51.966;4.602;2023-04-26T08:02:48;64075.63;;;9.09;75.46
41636;BME280;27623;51.966;4.602;2023-04-26T08:05:14;64086.16;;;9.07;75.45
41636;BME280;27623;51.966;4.602;2023-04-26T08:07:40;64072.38;;;8.99;73.01
41636;BME280;27623;51.966;4.602;2023-04-26T08:10:06;64087.06;;;9.06;72.84
41636;BME280;27623;51.966;4.602;2023-04-26T08:12:33;64102.13;;;9.10;72.05
41636;BME280;27623;51.966;4.602;2023-04-26T08:15:02;64077.25;;;9.11;69.98
41636;BME280;27623;51.966;4.602;2023-04-26T08:17:28;64094.88;;;9.08;67.78
41636;BME280;27623;51.966;4.602;2023-04-26T08:19:54;64127.16;;;9.19;67.79
41636;BME280;27623;51.966;4.602;2023-04-26T08:22:22;64115.53;;;9.20;67.11
41636;BME280;27623;51.966;4.602;2023-04-26T08:24:49;64100.28;;;9.27;67.06
41636;BME280;27623;51.966;4.602;2023-04-26T08:27:15;64121.16;;;9.35;67.20
41636;BME280;27623;51.966;4.602;2023-04-26T08:29:40;64101.69;;;9.41;66.80
41636;BME280;27623;51.966;4.602;2023-04-26T08:32:07;64121.13;;;9.42;66.46
41636;BME280;27623;51.966;4.602;2023-04-26T08:34:32;64103.50;;;9.45;66.60
41636;BME280;27623;51.966;4.602;2023-04-26T08:37:01;64114.56;;;9.50;65.74
41636;BME280;27623;51.966;4.602;2023-04-26T08:39:26;64131.47;;;9.52;66.96
41636;BME280;27623;51.966;4.602;2023-04-26T08:41:58;64129.47;;;9.52;67.29
41636;BME280;27623;51.966;4.602;2023-04-26T08:44:30;64141.09;;;9.51;65.84
41636;BME280;27623;51.966;4.602;2023-04-26T08:49:46;64162.13;;;9.69;67.09
41636;BME280;27623;51.966;4.602;2023-04-26T08:52:26;64115.78;;;9.68;64.80
41636;BME280;27623;51.966;4.602;2023-04-26T08:54:52;64138.84;;;9.71;63.28
41636;BME280;27623;51.966;4.602;2023-04-26T08:57:19;64167.19;;;9.69;63.92
41636;BME280;27623;51.966;4.602;2023-04-26T08:59:46;64151.94;;;9.69;64.85
41636;BME280;27623;51.966;4.602;2023-04-26T09:02:20;64129.75;;;9.72;64.06
41636;BME280;27623;51.966;4.602;2023-04-26T09:04:50;64143.75;;;9.75;63.83
41636;BME280;27623;51.966;4.602;2023-04-26T09:09:56;64128.69;;;9.63;64.17
41636;BME280;27623;51.966;4.602;2023-04-26T09:12:22;64164.50;;;9.59;64.76
41636;BME280;27623;51.966;4.602;2023-04-26T09:14:47;64143.06;;;9.58;66.11
41636;BME280;27623;51.966;4.602;2023-04-26T09:17:29;64107.28;;;9.55;69.97
41636;BME280;27623;51.966;4.602;2023-04-26T09:20:01;64132.34;;;9.57;68.45
41636;BME280;27623;51.966;4.602;2023-04-26T09:22:37;64144.16;;;9.52;67.79
41636;BME280;27623;51.966;4.602;2023-04-26T09:25:06;64106.16;;;9.61;65.66
41636;BME280;27623;51.966;4.602;2023-04-26T09:27:42;64145.78;;;9.60;66.46
41636;BME280;27623;51.966;4.602;2023-04-26T09:35:36;64164.09;;;9.75;64.72
41636;BME280;27623;51.966;4.602;2023-04-26T09:38:05;64149.75;;;9.74;64.15
41636;BME280;27623;51.966;4.602;2023-04-26T09:40:49;64167.53;;;9.81;64.56
41636;BME280;27623;51.966;4.602;2023-04-26T09:43:17;64172.06;;;9.87;63.57
41636;BME280;27623;51.966;4.602;2023-04-26T09:45:56;64153.16;;;9.86;63.43
41636;BME280;27623;51.966;4.602;2023-04-26T09:48:22;64186.94;;;9.96;62.87
41636;BME280;27623;51.966;4.602;2023-04-26T09:50:51;64182.53;;;10.07;62.92
41636;BME280;27623;51.966;4.602;2023-04-26T09:53:31;64198.53;;;10.10;63.81
41636;BME280;27623;51.966;4.602;2023-04-26T09:58:38;64190.19;;;10.07;65.94
41636;BME280;27623;51.966;4.602;2023-04-26T10:01:09;64206.00;;;10.14;64.88
41636;BME280;27623;51.966;4.602;2023-04-26T10:03:35;64167.81;;;10.07;64.99
41636;BME280;27623;51.966;4.602;2023-04-26T10:06:01;64178.97;;;9.91;64.69
41636;BME280;27623;51.966;4.602;2023-04-26T10:08:27;64210.94;;;9.97;64.59
41636;BME280;27623;51.966;4.602;2023-04-26T10:10:53;64197.47;;;10.02;64.97
41636;BME280;27623;51.966;4.602;2023-04-26T10:13:19;64186.56;;;10.06;67.29
41636;BME280;27623;51.966;4.602;2023-04-26T10:15:46;64168.56;;;10.03;66.22
41636;BME280;27623;51.966;4.602;2023-04-26T10:18:12;64174.72;;;10.04;66.29
41636;BME280;27623;51.966;4.602;2023-04-26T10:20:43;64191.63;;;10.13;64.95
41636;BME280;27623;51.966;4.602;2023-04-26T10:23:17;64202.72;;;10.11;63.33
41636;BME280;27623;51.966;4.602;2023-04-26T10:25:45;64211.81;;;10.17;63.52
41636;BME280;27623;51.966;4.602;2023-04-26T10:28:13;64207.25;;;10.25;63.13
41636;BME280;27623;51.966;4.602;2023-04-26T10:30:55;64186.88;;;10.25;61.11
41636;BME280;27623;51.966;4.602;2023-04-26T10:33:22;64205.03;;;10.37;61.09
41636;BME280;27623;51.966;4.602;2023-04-26T10:36:08;64229.56;;;10.46;60.30
41636;BME280;27623;51.966;4.602;2023-04-26T10:38:36;64222.44;;;10.53;59.13
41636;BME280;27623;51.966;4.602;2023-04-26T10:41:27;64243.31;;;10.68;59.95
41636;BME280;27623;51.966;4.602;2023-04-26T10:43:53;64244.38;;;10.76;59.87
41636;BME280;27623;51.966;4.602;2023-04-26T10:46:37;64330.63;;;10.92;57.73
41636;BME280;27623;51.966;4.602;2023-04-26T10:49:17;64288.19;;;10.91;57.27
41636;BME280;27623;51.966;4.602;2023-04-26T10:52:08;64269.34;;;11.14;54.18
41636;BME280;27623;51.966;4.602;2023-04-26T10:57:16;64380.28;;;11.69;51.55
41636;BME280;27623;51.966;4.602;2023-04-26T11:05:35;64505.84;;;12.58;49.50
41636;BME280;27623;51.966;4.602;2023-04-26T11:08:24;64556.97;;;13.03;49.95
41636;BME280;27623;51.966;4.602;2023-04-26T11:13:24;64562.13;;;13.34;48.60
41636;BME280;27623;51.966;4.602;2023-04-26T11:15:59;64535.84;;;12.86;45.60
41636;BME280;27623;51.966;4.602;2023-04-26T11:18:28;64527.41;;;12.97;45.54
41636;BME280;27623;51.966;4.602;2023-04-26T11:20:54;64547.47;;;13.06;46.69
41636;BME280;27623;51.966;4.602;2023-04-26T11:23:19;64514.47;;;12.87;45.86
41636;BME280;27623;51.966;4.602;2023-04-26T11:25:45;64569.91;;;13.13;46.21
41636;BME280;27623;51.966;4.602;2023-04-26T11:28:13;64550.63;;;13.30;45.82
41636;BME280;27623;51.966;4.602;2023-04-26T11:30:42;64569.53;;;13.22;46.22
41636;BME280;27623;51.966;4.602;2023-04-26T11:33:15;64584.53;;;13.55;47.68
41636;BME280;27623;51.966;4.602;2023-04-26T11:35:41;64542.84;;;13.21;48.35
41636;BME280;27623;51.966;4.602;2023-04-26T11:38:08;64519.72;;;12.97;49.21
41636;BME280;27623;51.966;4.602;2023-04-26T11:40:33;64493.34;;;12.77;47.74
41636;BME280;27623;51.966;4.602;2023-04-26T11:43:03;64510.00;;;12.66;48.95
41636;BME280;27623;51.966;4.602;2023-04-26T11:45:30;64463.03;;;12.37;49.40
41636;BME280;27623;51.966;4.602;2023-04-26T11:47:58;64448.81;;;12.31;50.14
41636;BME280;27623;51.966;4.602;2023-04-26T11:50:24;64414.78;;;12.11;48.45
41636;BME280;27623;51.966;4.602;2023-04-26T11:52:53;64421.25;;;11.93;47.07
41636;BME280;27623;51.966;4.602;2023-04-26T11:55:23;64363.25;;;11.89;50.50
41636;BME280;27623;51.966;4.602;2023-04-26T11:57:49;64411.94;;;11.92;50.04
41636;BME280;27623;51.966;4.602;2023-04-26T12:00:15;64373.28;;;11.87;50.61
41636;BME280;27623;51.966;4.602;2023-04-26T12:02:45;64399.16;;;11.92;50.48
41636;BME280;27623;51.966;4.602;2023-04-26T12:05:23;64392.59;;;11.93;49.96
41636;BME280;27623;51.966;4.602;2023-04-26T12:07:53;64431.72;;;12.20;48.35
41636;BME280;27623;51.966;4.602;2023-04-26T12:10:23;64473.53;;;12.56;49.88
41636;BME280;27623;51.966;4.602;2023-04-26T12:12:53;64499.13;;;12.87;48.79
41636;BME280;27623;51.966;4.602;2023-04-26T12:15:32;64520.16;;;12.88;49.29
41636;BME280;27623;51.966;4.602;2023-04-26T12:18:09;64482.00;;;12.76;48.13
41636;BME280;27623;51.966;4.602;2023-04-26T12:20:39;64538.34;;;13.00;47.76
41636;BME280;27623;51.966;4.602;2023-04-26T12:23:09;64603.31;;;13.67;46.98
41636;BME280;27623;51.966;4.602;2023-04-26T12:25:37;64680.75;;;14.30;45.76
41636;BME280;27623;51.966;4.602;2023-04-26T12:28:05;64706.72;;;14.66;44.18
41636;BME280;27623;51.966;4.602;2023-04-26T12:30:32;64708.97;;;14.61;42.13
41636;BME280;27623;51.966;4.602;2023-04-26T12:32:58;64745.69;;;15.04;43.99
41636;BME280;27623;51.966;4.602;2023-04-26T12:35:24;64830.09;;;15.61;42.83
41636;BME280;27623;51.966;4.602;2023-04-26T12:37:50;64865.28;;;15.96;44.03
41636;BME280;27623;51.966;4.602;2023-04-26T12:40:18;64917.97;;;16.24;42.73
41636;BME280;27623;51.966;4.602;2023-04-26T12:42:46;64920.66;;;16.33;40.83
41636;BME280;27623;51.966;4.602;2023-04-26T12:45:11;64948.28;;;16.23;40.20
41636;BME280;27623;51.966;4.602;2023-04-26T12:47:36;64871.00;;;15.90;41.48
41636;BME280;27623;51.966;4.602;2023-04-26T12:50:02;64822.84;;;15.45;42.42
41636;BME280;27623;51.966;4.602;2023-04-26T12:52:29;64784.47;;;14.93;43.50
41636;BME280;27623;51.966;4.602;2023-04-26T12:54:54;64683.69;;;14.59;43.90
41636;BME280;27623;51.966;4.602;2023-04-26T12:57:20;64716.38;;;14.49;43.76
41636;BME280;27623;51.966;4.602;2023-04-26T12:59:46;64675.19;;;14.39;43.75
41636;BME280;27623;51.966;4.602;2023-04-26T13:02:11;64655.41;;;14.11;46.52
41636;BME280;27623;51.966;4.602;2023-04-26T13:04:37;64660.72;;;14.06;45.43
41636;BME280;27623;51.966;4.602;2023-04-26T13:07:03;64645.72;;;14.04;44.41
41636;BME280;27623;51.966;4.602;2023-04-26T13:09:28;64687.94;;;14.53;45.79
41636;BME280;27623;51.966;4.602;2023-04-26T13:11:53;64779.63;;;15.36;43.97
41636;BME280;27623;51.966;4.602;2023-04-26T13:14:19;64801.56;;;15.42;40.81
41636;BME280;27623;51.966;4.602;2023-04-26T13:16:47;64779.75;;;15.15;40.38
41636;BME280;27623;51.966;4.602;2023-04-26T13:19:12;64742.59;;;14.73;41.71
41636;BME280;27623;51.966;4.602;2023-04-26T13:21:40;64712.13;;;14.54;42.31
41636;BME280;27623;51.966;4.602;2023-04-26T13:24:06;64687.34;;;14.29;43.73
41636;BME280;27623;51.966;4.602;2023-04-26T13:26:32;64643.41;;;14.24;41.85
41636;BME280;27623;51.966;4.602;2023-04-26T13:28:58;64642.88;;;13.92;42.96
41636;BME280;27623;51.966;4.602;2023-04-26T13:31:24;64633.63;;;14.07;43.95